sensor_id;sensor_type;location;lat;lon;timestamp;temperature;humidity
61386;DHT22;47256;18.904;-99.054;2024-02-26T00:01:58;29.90;54.50
61386;DHT22;47256;18.904;-99.054;2024-02-26T00:04:28;29.90;55.00
61386;DHT22;47256;18.904;-99.054;2024-02-26T00:06:59;29.90;55.80
61386;DHT22;47256;18.904;-99.054;2024-02-26T00:09:32;29.80;56.80
61386;DHT22;47256;18.904;-99.054;2024-02-26T00:12:03;29.70;57.20
61386;DHT22;47256;18.904;-99.054;2024-02-26T00:14:43;29.60;58.00
61386;DHT22;47256;18.904;-99.054;2024-02-26T00:17:13;29.60;58.20
61386;DHT22;47256;18.904;-99.054;2024-02-26T00:19:45;29.50;58.30
61386;DHT22;47256;18.904;-99.054;2024-02-26T00:22:14;29.50;59.10
61386;DHT22;47256;18.904;-99.054;2024-02-26T00:25:01;29.40;59.70
61386;DHT22;47256;18.904;-99.054;2024-02-26T00:27:29;29.40;60.50
61386;DHT22;47256;18.904;-99.054;2024-02-26T00:30:08;29.30;61.00
61386;DHT22;47256;18.904;-99.054;2024-02-26T00:32:39;29.20;60.80
61386;DHT22;47256;18.904;-99.054;2024-02-26T00:35:13;29.20;61.30
61386;DHT22;47256;18.904;-99.054;2024-02-26T00:37:41;29.10;61.60
61386;DHT22;47256;18.904;-99.054;2024-02-26T00:40:17;29.10;61.90
61386;DHT22;47256;18.904;-99.054;2024-02-26T00:42:47;28.90;62.10
61386;DHT22;47256;18.904;-99.054;2024-02-26T00:45:16;28.80;65.50
61386;DHT22;47256;18.904;-99.054;2024-02-26T00:47:44;28.70;64.40
61386;DHT22;47256;18.904;-99.054;2024-02-26T00:50:24;28.60;65.60
61386;DHT22;47256;18.904;-99.054;2024-02-26T00:52:55;28.50;62.10
61386;DHT22;47256;18.904;-99.054;2024-02-26T00:55:24;28.40;62.50
61386;DHT22;47256;18.904;-99.054;2024-02-26T00:57:54;28.40;63.70
61386;DHT22;47256;18.904;-99.054;2024-02-26T01:00:28;28.30;65.60
61386;DHT22;47256;18.904;-99.054;2024-02-26T01:03:12;28.20;66.60
61386;DHT22;47256;18.904;-99.054;2024-02-26T01:05:45;28.10;68.50
61386;DHT22;47256;18.904;-99.054;2024-02-26T01:08:13;28.00;69.00
61386;DHT22;47256;18.904;-99.054;2024-02-26T01:10:41;27.90;67.10
61386;DHT22;47256;18.904;-99.054;2024-02-26T01:13:08;27.80;68.90
61386;DHT22;47256;18.904;-99.054;2024-02-26T01:15:43;27.80;67.60
61386;DHT22;47256;18.904;-99.054;2024-02-26T01:18:22;27.70;69.10
61386;DHT22;47256;18.904;-99.054;2024-02-26T01:20:54;27.60;69.30
61386;DHT22;47256;18.904;-99.054;2024-02-26T01:23:24;27.70;68.30
61386;DHT22;47256;18.904;-99.054;2024-02-26T01:25:54;27.60;66.90
61386;DHT22;47256;18.904;-99.054;2024-02-26T01:28:22;27.60;65.20
61386;DHT22;47256;18.904;-99.054;2024-02-26T01:30:49;27.50;64.40
61386;DHT22;47256;18.904;-99.054;2024-02-26T01:33:16;27.50;63.00
61386;DHT22;47256;18.904;-99.054;2024-02-26T01:35:47;27.40;67.30
61386;DHT22;47256;18.904;-99.054;2024-02-26T01:38:15;27.30;67.20
61386;DHT22;47256;18.904;-99.054;2024-02-26T01:40:44;27.20;68.20
61386;DHT22;47256;18.904;-99.054;2024-02-26T01:43:12;27.20;65.40
61386;DHT22;47256;18.904;-99.054;2024-02-26T01:45:43;27.20;63.50
61386;DHT22;47256;18.904;-99.054;2024-02-26T01:48:15;27.20;64.50
61386;DHT22;47256;18.904;-99.054;2024-02-26T01:50:45;27.10;64.90
61386;DHT22;47256;18.904;-99.054;2024-02-26T01:53:19;27.00;64.40
61386;DHT22;47256;18.904;-99.054;2024-02-26T01:55:50;27.10;65.00
61386;DHT22;47256;18.904;-99.054;2024-02-26T01:58:23;27.10;64.40
61386;DHT22;47256;18.904;-99.054;2024-02-26T02:00:53;27.00;65.90
61386;DHT22;47256;18.904;-99.054;2024-02-26T02:03:27;27.00;68.00
61386;DHT22;47256;18.904;-99.054;2024-02-26T02:05:58;26.90;69.40
61386;DHT22;47256;18.904;-99.054;2024-02-26T02:08:31;26.80;68.40
61386;DHT22;47256;18.904;-99.054;2024-02-26T02:10:59;26.70;69.80
61386;DHT22;47256;18.904;-99.054;2024-02-26T02:13:27;26.70;68.90
61386;DHT22;47256;18.904;-99.054;2024-02-26T02:15:54;26.70;67.40
61386;DHT22;47256;18.904;-99.054;2024-02-26T02:18:21;26.70;68.70
61386;DHT22;47256;18.904;-99.054;2024-02-26T02:20:48;26.60;66.50
61386;DHT22;47256;18.904;-99.054;2024-02-26T02:23:16;26.60;61.70
61386;DHT22;47256;18.904;-99.054;2024-02-26T02:25:43;26.60;60.00
61386;DHT22;47256;18.904;-99.054;2024-02-26T02:28:15;26.70;59.20
61386;DHT22;47256;18.904;-99.054;2024-02-26T02:30:49;26.70;61.70
61386;DHT22;47256;18.904;-99.054;2024-02-26T02:33:23;26.70;63.30
61386;DHT22;47256;18.904;-99.054;2024-02-26T02:35:51;26.80;63.20
61386;DHT22;47256;18.904;-99.054;2024-02-26T02:38:26;26.80;62.20
61386;DHT22;47256;18.904;-99.054;2024-02-26T02:40:54;26.80;63.30
61386;DHT22;47256;18.904;-99.054;2024-02-26T02:43:22;26.80;64.70
61386;DHT22;47256;18.904;-99.054;2024-02-26T02:45:49;26.70;65.10
61386;DHT22;47256;18.904;-99.054;2024-02-26T02:48:20;26.70;65.90
61386;DHT22;47256;18.904;-99.054;2024-02-26T02:50:47;26.50;67.20
61386;DHT22;47256;18.904;-99.054;2024-02-26T02:53:15;26.50;67.30
61386;DHT22;47256;18.904;-99.054;2024-02-26T02:55:43;26.40;65.90
61386;DHT22;47256;18.904;-99.054;2024-02-26T02:58:11;26.40;65.00
61386;DHT22;47256;18.904;-99.054;2024-02-26T03:00:38;26.40;64.90
61386;DHT22;47256;18.904;-99.054;2024-02-26T03:03:07;26.40;64.90
61386;DHT22;47256;18.904;-99.054;2024-02-26T03:05:35;26.30;65.30
61386;DHT22;47256;18.904;-99.054;2024-02-26T03:08:02;26.30;65.40
61386;DHT22;47256;18.904;-99.054;2024-02-26T03:10:29;26.30;65.80
61386;DHT22;47256;18.904;-99.054;2024-02-26T03:13:05;26.30;66.00
61386;DHT22;47256;18.904;-99.054;2024-02-26T03:15:34;26.30;69.00
61386;DHT22;47256;18.904;-99.054;2024-02-26T03:18:05;26.20;67.10
61386;DHT22;47256;18.904;-99.054;2024-02-26T03:20:33;26.20;68.50
61386;DHT22;47256;18.904;-99.054;2024-02-26T03:23:04;26.20;68.90
61386;DHT22;47256;18.904;-99.054;2024-02-26T03:25:31;26.00;70.30
61386;DHT22;47256;18.904;-99.054;2024-02-26T03:27:58;25.90;70.20
61386;DHT22;47256;18.904;-99.054;2024-02-26T03:30:25;25.70;69.10
61386;DHT22;47256;18.904;-99.054;2024-02-26T03:32:52;25.70;69.20
61386;DHT22;47256;18.904;-99.054;2024-02-26T03:35:19;25.70;69.50
61386;DHT22;47256;18.904;-99.054;2024-02-26T03:37:50;25.70;70.30
61386;DHT22;47256;18.904;-99.054;2024-02-26T03:40:18;25.70;71.50
61386;DHT22;47256;18.904;-99.054;2024-02-26T03:42:46;25.60;71.40
61386;DHT22;47256;18.904;-99.054;2024-02-26T03:45:14;25.60;71.50
61386;DHT22;47256;18.904;-99.054;2024-02-26T03:47:42;25.60;71.70
61386;DHT22;47256;18.904;-99.054;2024-02-26T03:50:10;25.50;72.50
61386;DHT22;47256;18.904;-99.054;2024-02-26T03:52:38;25.50;71.60
61386;DHT22;47256;18.904;-99.054;2024-02-26T03:55:06;25.40;71.90
61386;DHT22;47256;18.904;-99.054;2024-02-26T03:57:35;25.30;72.50
61386;DHT22;47256;18.904;-99.054;2024-02-26T04:00:03;25.30;73.70
61386;DHT22;47256;18.904;-99.054;2024-02-26T04:02:37;25.20;74.60
61386;DHT22;47256;18.904;-99.054;2024-02-26T04:05:08;25.10;74.80
61386;DHT22;47256;18.904;-99.054;2024-02-26T04:07:36;25.00;76.00
61386;DHT22;47256;18.904;-99.054;2024-02-26T04:10:11;25.10;75.30
61386;DHT22;47256;18.904;-99.054;2024-02-26T04:12:40;25.00;75.20
61386;DHT22;47256;18.904;-99.054;2024-02-26T04:15:10;24.90;74.70
61386;DHT22;47256;18.904;-99.054;2024-02-26T04:17:38;24.90;74.10
61386;DHT22;47256;18.904;-99.054;2024-02-26T04:20:06;24.70;73.60
61386;DHT22;47256;18.904;-99.054;2024-02-26T04:22:33;24.80;72.80
61386;DHT22;47256;18.904;-99.054;2024-02-26T04:25:00;24.80;72.40
61386;DHT22;47256;18.904;-99.054;2024-02-26T04:27:28;24.80;73.60
61386;DHT22;47256;18.904;-99.054;2024-02-26T04:29:55;24.80;73.90
61386;DHT22;47256;18.904;-99.054;2024-02-26T04:32:22;24.80;74.40
61386;DHT22;47256;18.904;-99.054;2024-02-26T04:34:49;24.70;76.10
61386;DHT22;47256;18.904;-99.054;2024-02-26T04:37:17;24.70;75.10
61386;DHT22;47256;18.904;-99.054;2024-02-26T04:39:46;24.60;76.00
61386;DHT22;47256;18.904;-99.054;2024-02-26T04:42:14;24.60;76.40
61386;DHT22;47256;18.904;-99.054;2024-02-26T04:44:42;24.50;76.40
61386;DHT22;47256;18.904;-99.054;2024-02-26T04:47:09;24.40;77.50
61386;DHT22;47256;18.904;-99.054;2024-02-26T04:49:39;24.20;77.80
61386;DHT22;47256;18.904;-99.054;2024-02-26T04:52:06;24.10;77.40
61386;DHT22;47256;18.904;-99.054;2024-02-26T04:54:36;24.10;76.90
61386;DHT22;47256;18.904;-99.054;2024-02-26T04:57:04;24.20;76.30
61386;DHT22;47256;18.904;-99.054;2024-02-26T04:59:34;24.20;76.90
61386;DHT22;47256;18.904;-99.054;2024-02-26T05:02:01;24.10;77.20
61386;DHT22;47256;18.904;-99.054;2024-02-26T05:04:29;24.10;75.30
61386;DHT22;47256;18.904;-99.054;2024-02-26T05:06:56;24.10;72.80
61386;DHT22;47256;18.904;-99.054;2024-02-26T05:09:24;23.80;72.80
61386;DHT22;47256;18.904;-99.054;2024-02-26T05:11:51;23.60;71.10
61386;DHT22;47256;18.904;-99.054;2024-02-26T05:14:18;23.60;70.80
61386;DHT22;47256;18.904;-99.054;2024-02-26T05:16:46;23.60;71.00
61386;DHT22;47256;18.904;-99.054;2024-02-26T05:19:13;23.70;71.50
61386;DHT22;47256;18.904;-99.054;2024-02-26T05:21:41;23.70;71.30
61386;DHT22;47256;18.904;-99.054;2024-02-26T05:24:11;23.70;71.70
61386;DHT22;47256;18.904;-99.054;2024-02-26T05:26:42;23.80;72.20
61386;DHT22;47256;18.904;-99.054;2024-02-26T05:29:11;23.80;72.80
61386;DHT22;47256;18.904;-99.054;2024-02-26T05:31:41;23.80;72.80
61386;DHT22;47256;18.904;-99.054;2024-02-26T05:34:09;23.60;73.20
61386;DHT22;47256;18.904;-99.054;2024-02-26T05:36:36;23.60;73.90
61386;DHT22;47256;18.904;-99.054;2024-02-26T05:39:04;23.50;75.10
61386;DHT22;47256;18.904;-99.054;2024-02-26T05:41:33;23.50;74.10
61386;DHT22;47256;18.904;-99.054;2024-02-26T05:44:07;23.50;75.70
61386;DHT22;47256;18.904;-99.054;2024-02-26T05:46:37;23.40;75.70
61386;DHT22;47256;18.904;-99.054;2024-02-26T05:49:05;23.40;75.10
61386;DHT22;47256;18.904;-99.054;2024-02-26T05:51:35;23.40;75.70
61386;DHT22;47256;18.904;-99.054;2024-02-26T05:54:06;23.30;75.40
61386;DHT22;47256;18.904;-99.054;2024-02-26T05:56:35;23.30;76.10
61386;DHT22;47256;18.904;-99.054;2024-02-26T05:59:05;23.30;76.70
61386;DHT22;47256;18.904;-99.054;2024-02-26T06:01:36;23.20;76.40
61386;DHT22;47256;18.904;-99.054;2024-02-26T06:04:04;23.10;77.00
61386;DHT22;47256;18.904;-99.054;2024-02-26T06:06:31;23.00;76.70
61386;DHT22;47256;18.904;-99.054;2024-02-26T06:08:58;23.00;76.90
61386;DHT22;47256;18.904;-99.054;2024-02-26T06:11:25;23.00;77.50
61386;DHT22;47256;18.904;-99.054;2024-02-26T06:13:54;22.90;78.20
61386;DHT22;47256;18.904;-99.054;2024-02-26T06:16:21;22.80;77.80
61386;DHT22;47256;18.904;-99.054;2024-02-26T06:18:50;22.80;78.40
61386;DHT22;47256;18.904;-99.054;2024-02-26T06:21:17;22.80;77.90
61386;DHT22;47256;18.904;-99.054;2024-02-26T06:23:45;22.90;78.20
61386;DHT22;47256;18.904;-99.054;2024-02-26T06:26:13;22.90;77.60
61386;DHT22;47256;18.904;-99.054;2024-02-26T06:28:41;23.00;78.50
61386;DHT22;47256;18.904;-99.054;2024-02-26T06:31:10;23.00;79.40
61386;DHT22;47256;18.904;-99.054;2024-02-26T06:33:38;23.00;78.00
61386;DHT22;47256;18.904;-99.054;2024-02-26T06:36:06;23.10;79.20
61386;DHT22;47256;18.904;-99.054;2024-02-26T06:38:36;23.00;79.10
61386;DHT22;47256;18.904;-99.054;2024-02-26T06:41:04;23.00;78.30
61386;DHT22;47256;18.904;-99.054;2024-02-26T06:43:32;23.00;77.80
61386;DHT22;47256;18.904;-99.054;2024-02-26T06:46:00;23.00;77.80
61386;DHT22;47256;18.904;-99.054;2024-02-26T06:48:29;23.00;78.00
61386;DHT22;47256;18.904;-99.054;2024-02-26T06:50:59;23.00;78.60
61386;DHT22;47256;18.904;-99.054;2024-02-26T06:53:30;22.90;79.90
61386;DHT22;47256;18.904;-99.054;2024-02-26T06:56:01;22.80;80.00
61386;DHT22;47256;18.904;-99.054;2024-02-26T06:58:30;22.70;79.10
61386;DHT22;47256;18.904;-99.054;2024-02-26T07:00:57;22.70;79.00
61386;DHT22;47256;18.904;-99.054;2024-02-26T07:03:26;22.70;79.50
61386;DHT22;47256;18.904;-99.054;2024-02-26T07:05:53;22.60;80.70
61386;DHT22;47256;18.904;-99.054;2024-02-26T07:08:22;22.60;80.60
61386;DHT22;47256;18.904;-99.054;2024-02-26T07:10:52;22.60;80.40
61386;DHT22;47256;18.904;-99.054;2024-02-26T07:13:20;22.60;80.50
61386;DHT22;47256;18.904;-99.054;2024-02-26T07:15:49;22.50;79.60
61386;DHT22;47256;18.904;-99.054;2024-02-26T07:18:16;22.40;78.70
61386;DHT22;47256;18.904;-99.054;2024-02-26T07:20:44;22.40;77.80
61386;DHT22;47256;18.904;-99.054;2024-02-26T07:23:16;22.50;77.10
61386;DHT22;47256;18.904;-99.054;2024-02-26T07:25:44;22.50;76.90
61386;DHT22;47256;18.904;-99.054;2024-02-26T07:28:13;22.50;76.90
61386;DHT22;47256;18.904;-99.054;2024-02-26T07:30:42;22.50;76.90
61386;DHT22;47256;18.904;-99.054;2024-02-26T07:33:09;22.50;76.90
61386;DHT22;47256;18.904;-99.054;2024-02-26T07:35:40;22.40;77.30
61386;DHT22;47256;18.904;-99.054;2024-02-26T07:38:11;22.30;77.70
61386;DHT22;47256;18.904;-99.054;2024-02-26T07:40:51;22.20;78.20
61386;DHT22;47256;18.904;-99.054;2024-02-26T07:43:18;22.20;77.90
61386;DHT22;47256;18.904;-99.054;2024-02-26T07:45:50;22.00;79.20
61386;DHT22;47256;18.904;-99.054;2024-02-26T07:48:17;22.00;79.50
61386;DHT22;47256;18.904;-99.054;2024-02-26T07:50:45;21.90;78.70
61386;DHT22;47256;18.904;-99.054;2024-02-26T07:53:13;22.00;76.70
61386;DHT22;47256;18.904;-99.054;2024-02-26T07:55:42;22.00;76.50
61386;DHT22;47256;18.904;-99.054;2024-02-26T07:58:21;21.90;76.20
61386;DHT22;47256;18.904;-99.054;2024-02-26T08:00:55;22.00;76.40
61386;DHT22;47256;18.904;-99.054;2024-02-26T08:03:23;22.00;77.10
61386;DHT22;47256;18.904;-99.054;2024-02-26T08:05:59;21.90;77.70
61386;DHT22;47256;18.904;-99.054;2024-02-26T08:08:27;22.00;78.00
61386;DHT22;47256;18.904;-99.054;2024-02-26T08:10:54;21.90;78.00
61386;DHT22;47256;18.904;-99.054;2024-02-26T08:13:21;21.90;79.00
61386;DHT22;47256;18.904;-99.054;2024-02-26T08:15:51;21.90;79.20
61386;DHT22;47256;18.904;-99.054;2024-02-26T08:18:28;21.70;79.80
61386;DHT22;47256;18.904;-99.054;2024-02-26T08:20:55;21.70;79.50
61386;DHT22;47256;18.904;-99.054;2024-02-26T08:23:23;21.70;81.00
61386;DHT22;47256;18.904;-99.054;2024-02-26T08:25:50;21.50;81.60
61386;DHT22;47256;18.904;-99.054;2024-02-26T08:28:17;21.40;81.10
61386;DHT22;47256;18.904;-99.054;2024-02-26T08:30:45;21.40;80.60
61386;DHT22;47256;18.904;-99.054;2024-02-26T08:33:22;21.50;80.10
61386;DHT22;47256;18.904;-99.054;2024-02-26T08:35:49;21.50;80.40
61386;DHT22;47256;18.904;-99.054;2024-02-26T08:38:37;21.50;81.40
61386;DHT22;47256;18.904;-99.054;2024-02-26T08:41:07;21.50;82.00
61386;DHT22;47256;18.904;-99.054;2024-02-26T08:43:35;21.40;83.10
61386;DHT22;47256;18.904;-99.054;2024-02-26T08:46:12;21.40;83.00
61386;DHT22;47256;18.904;-99.054;2024-02-26T08:48:44;21.30;82.30
61386;DHT22;47256;18.904;-99.054;2024-02-26T08:51:11;21.30;81.70
61386;DHT22;47256;18.904;-99.054;2024-02-26T08:53:43;21.30;81.70
61386;DHT22;47256;18.904;-99.054;2024-02-26T08:56:13;21.30;81.70
61386;DHT22;47256;18.904;-99.054;2024-02-26T08:58:46;21.40;82.30
61386;DHT22;47256;18.904;-99.054;2024-02-26T09:01:15;21.40;82.30
61386;DHT22;47256;18.904;-99.054;2024-02-26T09:03:43;21.40;82.20
61386;DHT22;47256;18.904;-99.054;2024-02-26T09:06:15;21.30;82.70
61386;DHT22;47256;18.904;-99.054;2024-02-26T09:08:42;21.20;83.20
61386;DHT22;47256;18.904;-99.054;2024-02-26T09:11:12;21.20;82.70
61386;DHT22;47256;18.904;-99.054;2024-02-26T09:13:42;21.10;83.60
61386;DHT22;47256;18.904;-99.054;2024-02-26T09:16:14;21.00;83.10
61386;DHT22;47256;18.904;-99.054;2024-02-26T09:18:50;21.00;83.20
61386;DHT22;47256;18.904;-99.054;2024-02-26T09:21:20;21.00;84.10
61386;DHT22;47256;18.904;-99.054;2024-02-26T09:23:50;20.90;85.00
61386;DHT22;47256;18.904;-99.054;2024-02-26T09:26:18;20.90;84.50
61386;DHT22;47256;18.904;-99.054;2024-02-26T09:28:46;20.70;83.40
61386;DHT22;47256;18.904;-99.054;2024-02-26T09:31:18;20.70;83.70
61386;DHT22;47256;18.904;-99.054;2024-02-26T09:33:46;20.70;83.20
61386;DHT22;47256;18.904;-99.054;2024-02-26T09:36:14;20.70;82.30
61386;DHT22;47256;18.904;-99.054;2024-02-26T09:38:43;20.70;82.30
61386;DHT22;47256;18.904;-99.054;2024-02-26T09:41:16;20.60;84.20
61386;DHT22;47256;18.904;-99.054;2024-02-26T09:43:48;20.40;84.80
61386;DHT22;47256;18.904;-99.054;2024-02-26T09:46:21;20.40;85.40
61386;DHT22;47256;18.904;-99.054;2024-02-26T09:49:00;20.50;85.20
61386;DHT22;47256;18.904;-99.054;2024-02-26T09:51:38;20.50;84.00
61386;DHT22;47256;18.904;-99.054;2024-02-26T09:54:10;20.50;84.80
61386;DHT22;47256;18.904;-99.054;2024-02-26T09:56:41;20.40;85.40
61386;DHT22;47256;18.904;-99.054;2024-02-26T09:59:15;20.50;84.70
61386;DHT22;47256;18.904;-99.054;2024-02-26T10:01:45;20.40;84.80
61386;DHT22;47256;18.904;-99.054;2024-02-26T10:04:15;20.30;85.90
61386;DHT22;47256;18.904;-99.054;2024-02-26T10:06:49;20.30;84.80
61386;DHT22;47256;18.904;-99.054;2024-02-26T10:09:26;20.30;84.80
61386;DHT22;47256;18.904;-99.054;2024-02-26T10:11:59;20.30;85.10
61386;DHT22;47256;18.904;-99.054;2024-02-26T10:14:31;20.30;84.10
61386;DHT22;47256;18.904;-99.054;2024-02-26T10:17:10;20.20;84.10
61386;DHT22;47256;18.904;-99.054;2024-02-26T10:19:40;20.10;85.40
61386;DHT22;47256;18.904;-99.054;2024-02-26T10:22:11;20.10;84.90
61386;DHT22;47256;18.904;-99.054;2024-02-26T10:24:48;20.20;83.80
61386;DHT22;47256;18.904;-99.054;2024-02-26T10:27:16;20.20;83.40
61386;DHT22;47256;18.904;-99.054;2024-02-26T10:29:45;20.20;83.30
61386;DHT22;47256;18.904;-99.054;2024-02-26T10:32:13;20.30;82.50
61386;DHT22;47256;18.904;-99.054;2024-02-26T10:34:44;20.30;82.00
61386;DHT22;47256;18.904;-99.054;2024-02-26T10:37:13;20.30;81.60
61386;DHT22;47256;18.904;-99.054;2024-02-26T10:39:47;20.20;81.00
61386;DHT22;47256;18.904;-99.054;2024-02-26T10:42:16;20.20;83.30
61386;DHT22;47256;18.904;-99.054;2024-02-26T10:44:49;20.20;81.90
61386;DHT22;47256;18.904;-99.054;2024-02-26T10:47:18;20.20;81.00
61386;DHT22;47256;18.904;-99.054;2024-02-26T10:49:48;20.20;81.20
61386;DHT22;47256;18.904;-99.054;2024-02-26T10:52:19;20.20;81.10
61386;DHT22;47256;18.904;-99.054;2024-02-26T10:54:50;20.10;82.00
61386;DHT22;47256;18.904;-99.054;2024-02-26T10:57:24;20.10;82.10
61386;DHT22;47256;18.904;-99.054;2024-02-26T10:59:54;20.10;81.00
61386;DHT22;47256;18.904;-99.054;2024-02-26T11:02:26;20.10;80.00
61386;DHT22;47256;18.904;-99.054;2024-02-26T11:05:00;20.10;79.20
61386;DHT22;47256;18.904;-99.054;2024-02-26T11:07:35;20.00;78.90
61386;DHT22;47256;18.904;-99.054;2024-02-26T11:10:05;20.00;79.40
61386;DHT22;47256;18.904;-99.054;2024-02-26T11:12:40;19.90;81.90
61386;DHT22;47256;18.904;-99.054;2024-02-26T11:15:11;19.80;81.30
61386;DHT22;47256;18.904;-99.054;2024-02-26T11:17:43;19.80;80.60
61386;DHT22;47256;18.904;-99.054;2024-02-26T11:20:12;19.80;80.30
61386;DHT22;47256;18.904;-99.054;2024-02-26T11:22:40;19.80;80.30
61386;DHT22;47256;18.904;-99.054;2024-02-26T11:25:07;19.80;80.40
61386;DHT22;47256;18.904;-99.054;2024-02-26T11:27:52;19.70;80.30
61386;DHT22;47256;18.904;-99.054;2024-02-26T11:30:24;19.70;79.80
61386;DHT22;47256;18.904;-99.054;2024-02-26T11:32:58;19.70;80.20
61386;DHT22;47256;18.904;-99.054;2024-02-26T11:35:26;19.80;79.60
61386;DHT22;47256;18.904;-99.054;2024-02-26T11:38:02;19.70;79.90
61386;DHT22;47256;18.904;-99.054;2024-02-26T11:40:38;19.60;80.30
61386;DHT22;47256;18.904;-99.054;2024-02-26T11:43:11;19.60;80.70
61386;DHT22;47256;18.904;-99.054;2024-02-26T11:48:23;19.40;82.10
61386;DHT22;47256;18.904;-99.054;2024-02-26T11:50:59;19.40;81.60
61386;DHT22;47256;18.904;-99.054;2024-02-26T11:53:35;19.40;82.00
61386;DHT22;47256;18.904;-99.054;2024-02-26T11:56:26;19.40;83.00
61386;DHT22;47256;18.904;-99.054;2024-02-26T11:59:04;19.30;83.20
61386;DHT22;47256;18.904;-99.054;2024-02-26T12:01:39;19.30;83.30
61386;DHT22;47256;18.904;-99.054;2024-02-26T12:04:25;19.20;84.10
61386;DHT22;47256;18.904;-99.054;2024-02-26T12:06:59;19.20;83.50
61386;DHT22;47256;18.904;-99.054;2024-02-26T12:12:12;19.10;84.20
61386;DHT22;47256;18.904;-99.054;2024-02-26T12:15:02;19.20;84.70
61386;DHT22;47256;18.904;-99.054;2024-02-26T12:17:32;19.00;86.50
61386;DHT22;47256;18.904;-99.054;2024-02-26T12:20:18;19.00;85.60
61386;DHT22;47256;18.904;-99.054;2024-02-26T12:22:51;19.00;85.40
61386;DHT22;47256;18.904;-99.054;2024-02-26T12:25:26;19.00;85.30
61386;DHT22;47256;18.904;-99.054;2024-02-26T12:27:54;18.90;86.20
61386;DHT22;47256;18.904;-99.054;2024-02-26T12:30:25;18.90;86.80
61386;DHT22;47256;18.904;-99.054;2024-02-26T12:33:01;18.80;86.30
61386;DHT22;47256;18.904;-99.054;2024-02-26T12:35:29;18.80;85.40
61386;DHT22;47256;18.904;-99.054;2024-02-26T12:38:00;18.80;85.40
61386;DHT22;47256;18.904;-99.054;2024-02-26T12:40:33;18.80;86.10
61386;DHT22;47256;18.904;-99.054;2024-02-26T12:43:09;18.70;86.40
61386;DHT22;47256;18.904;-99.054;2024-02-26T12:45:46;18.70;85.50
61386;DHT22;47256;18.904;-99.054;2024-02-26T12:48:14;18.70;85.50
61386;DHT22;47256;18.904;-99.054;2024-02-26T12:50:47;18.80;85.20
61386;DHT22;47256;18.904;-99.054;2024-02-26T12:53:18;18.70;86.30
61386;DHT22;47256;18.904;-99.054;2024-02-26T12:55:49;18.70;86.70
61386;DHT22;47256;18.904;-99.054;2024-02-26T12:58:22;18.60;86.60
61386;DHT22;47256;18.904;-99.054;2024-02-26T13:00:55;18.50;86.00
61386;DHT22;47256;18.904;-99.054;2024-02-26T13:03:25;18.50;86.30
61386;DHT22;47256;18.904;-99.054;2024-02-26T13:05:57;18.40;84.80
61386;DHT22;47256;18.904;-99.054;2024-02-26T13:08:24;18.30;85.90
61386;DHT22;47256;18.904;-99.054;2024-02-26T13:10:53;18.30;85.70
61386;DHT22;47256;18.904;-99.054;2024-02-26T13:13:23;18.30;85.00
61386;DHT22;47256;18.904;-99.054;2024-02-26T13:16:23;18.40;85.30
61386;DHT22;47256;18.904;-99.054;2024-02-26T13:18:55;18.40;86.10
61386;DHT22;47256;18.904;-99.054;2024-02-26T13:21:25;18.40;85.20
61386;DHT22;47256;18.904;-99.054;2024-02-26T13:23:53;18.40;85.40
61386;DHT22;47256;18.904;-99.054;2024-02-26T13:26:25;18.50;84.80
61386;DHT22;47256;18.904;-99.054;2024-02-26T13:29:03;18.60;84.00
61386;DHT22;47256;18.904;-99.054;2024-02-26T13:31:39;18.60;82.30
61386;DHT22;47256;18.904;-99.054;2024-02-26T13:34:11;18.70;82.70
61386;DHT22;47256;18.904;-99.054;2024-02-26T13:36:45;18.70;84.60
61386;DHT22;47256;18.904;-99.054;2024-02-26T13:39:24;18.70;84.70
61386;DHT22;47256;18.904;-99.054;2024-02-26T13:41:55;18.80;85.00
61386;DHT22;47256;18.904;-99.054;2024-02-26T13:44:23;18.90;85.60
61386;DHT22;47256;18.904;-99.054;2024-02-26T13:46:51;19.00;85.30
61386;DHT22;47256;18.904;-99.054;2024-02-26T13:49:18;19.00;85.00
61386;DHT22;47256;18.904;-99.054;2024-02-26T13:51:47;19.00;85.20
61386;DHT22;47256;18.904;-99.054;2024-02-26T13:54:14;19.10;85.30
61386;DHT22;47256;18.904;-99.054;2024-02-26T13:56:45;19.00;85.30
61386;DHT22;47256;18.904;-99.054;2024-02-26T13:59:14;19.00;85.80
61386;DHT22;47256;18.904;-99.054;2024-02-26T14:01:42;19.00;85.70
61386;DHT22;47256;18.904;-99.054;2024-02-26T14:04:11;19.10;86.50
61386;DHT22;47256;18.904;-99.054;2024-02-26T14:06:39;19.20;85.90
61386;DHT22;47256;18.904;-99.054;2024-02-26T14:09:08;19.20;87.30
61386;DHT22;47256;18.904;-99.054;2024-02-26T14:11:36;19.40;88.00
61386;DHT22;47256;18.904;-99.054;2024-02-26T14:14:05;19.60;87.90
61386;DHT22;47256;18.904;-99.054;2024-02-26T14:16:33;19.60;87.20
61386;DHT22;47256;18.904;-99.054;2024-02-26T14:19:00;19.70;86.20
61386;DHT22;47256;18.904;-99.054;2024-02-26T14:21:27;19.90;86.40
61386;DHT22;47256;18.904;-99.054;2024-02-26T14:23:56;20.10;86.20
61386;DHT22;47256;18.904;-99.054;2024-02-26T14:26:24;20.30;86.20
61386;DHT22;47256;18.904;-99.054;2024-02-26T14:28:51;20.40;87.40
61386;DHT22;47256;18.904;-99.054;2024-02-26T14:31:18;20.60;86.10
61386;DHT22;47256;18.904;-99.054;2024-02-26T14:33:46;20.70;85.90
61386;DHT22;47256;18.904;-99.054;2024-02-26T14:36:13;20.90;85.00
61386;DHT22;47256;18.904;-99.054;2024-02-26T14:38:42;21.10;84.50
61386;DHT22;47256;18.904;-99.054;2024-02-26T14:41:09;21.30;83.60
61386;DHT22;47256;18.904;-99.054;2024-02-26T14:43:39;21.40;83.90
61386;DHT22;47256;18.904;-99.054;2024-02-26T14:46:17;21.60;80.70
61386;DHT22;47256;18.904;-99.054;2024-02-26T14:48:47;21.70;80.60
61386;DHT22;47256;18.904;-99.054;2024-02-26T14:51:24;21.90;79.40
61386;DHT22;47256;18.904;-99.054;2024-02-26T14:53:51;22.00;77.60
61386;DHT22;47256;18.904;-99.054;2024-02-26T14:56:20;22.10;79.10
61386;DHT22;47256;18.904;-99.054;2024-02-26T14:58:47;22.30;77.90
61386;DHT22;47256;18.904;-99.054;2024-02-26T15:01:16;22.40;77.70
61386;DHT22;47256;18.904;-99.054;2024-02-26T15:03:43;22.70;76.40
61386;DHT22;47256;18.904;-99.054;2024-02-26T15:06:11;22.90;76.20
61386;DHT22;47256;18.904;-99.054;2024-02-26T15:08:38;23.00;72.70
61386;DHT22;47256;18.904;-99.054;2024-02-26T15:11:08;23.30;71.50
61386;DHT22;47256;18.904;-99.054;2024-02-26T15:13:36;23.50;71.00
61386;DHT22;47256;18.904;-99.054;2024-02-26T15:16:04;23.70;70.70
61386;DHT22;47256;18.904;-99.054;2024-02-26T15:18:31;23.90;71.90
61386;DHT22;47256;18.904;-99.054;2024-02-26T15:20:59;24.10;71.70
61386;DHT22;47256;18.904;-99.054;2024-02-26T15:23:26;24.20;70.10
61386;DHT22;47256;18.904;-99.054;2024-02-26T15:25:56;24.40;66.40
61386;DHT22;47256;18.904;-99.054;2024-02-26T15:28:23;24.50;66.00